Niles, Mississippi
Current Conditions -  °F | °C
As of 6:15 AM on Friday 28 Nov 2014 (Local Time) from KRNV Reporting Station
Clear Clear  
Wind Chill: 27°   Ceiling: Unl
Heat Index: 33°   Visibility: 10mi
Dew Point: 31°   Wind: 6mph
Humidity: 92%   Direction: 150°SSE
Pressure: 30.42"   Gusts: NA
Location:  33.8277°N, 90.9559°W
Report Text: KRNV 281215Z AUTO 15005KT 10SM CLR 01/M01 A3042 RMK AO2 T00051007
Loading
Personal Weather Stations






























Interactive Weather Map New forecast layout! Learn more

10-Day Weather Forecast

Advertisements
Track Severe Weather on mobile